sensor_id;sensor_type;location;lat;lon;timestamp;P1;durP1;ratioP1;P2;durP2;ratioP2
17832;SDS011;9041;49.718;21.798;2024-01-25T00:00:58;20.17;;;7.93;;
17832;SDS011;9041;49.718;21.798;2024-01-25T00:03:26;20.47;;;7.77;;
17832;SDS011;9041;49.718;21.798;2024-01-25T00:05:53;8.53;;;4.57;;
17832;SDS011;9041;49.718;21.798;2024-01-25T00:08:19;13.53;;;5.97;;
17832;SDS011;9041;49.718;21.798;2024-01-25T00:10:46;8.90;;;4.30;;
17832;SDS011;9041;49.718;21.798;2024-01-25T00:13:12;17.80;;;4.90;;
17832;SDS011;9041;49.718;21.798;2024-01-25T00:15:39;12.47;;;3.70;;
17832;SDS011;9041;49.718;21.798;2024-01-25T00:18:06;13.80;;;3.57;;
17832;SDS011;9041;49.718;21.798;2024-01-25T00:20:34;11.90;;;3.17;;
17832;SDS011;9041;49.718;21.798;2024-01-25T00:23:00;11.13;;;2.83;;
17832;SDS011;9041;49.718;21.798;2024-01-25T00:25:27;12.63;;;3.10;;
17832;SDS011;9041;49.718;21.798;2024-01-25T00:27:53;9.33;;;3.10;;
17832;SDS011;9041;49.718;21.798;2024-01-25T00:30:20;10.70;;;3.00;;
17832;SDS011;9041;49.718;21.798;2024-01-25T00:32:47;12.93;;;3.20;;
17832;SDS011;9041;49.718;21.798;2024-01-25T00:35:14;16.67;;;4.10;;
17832;SDS011;9041;49.718;21.798;2024-01-25T00:37:43;11.00;;;3.37;;
17832;SDS011;9041;49.718;21.798;2024-01-25T00:40:10;7.60;;;3.10;;
17832;SDS011;9041;49.718;21.798;2024-01-25T00:42:41;9.80;;;2.90;;
17832;SDS011;9041;49.718;21.798;2024-01-25T00:45:08;8.37;;;2.63;;
17832;SDS011;9041;49.718;21.798;2024-01-25T00:47:36;9.17;;;2.67;;
17832;SDS011;9041;49.718;21.798;2024-01-25T00:50:03;8.20;;;2.67;;
17832;SDS011;9041;49.718;21.798;2024-01-25T00:52:30;5.07;;;2.37;;
17832;SDS011;9041;49.718;21.798;2024-01-25T00:54:59;11.30;;;2.63;;
17832;SDS011;9041;49.718;21.798;2024-01-25T00:57:26;10.13;;;2.70;;
17832;SDS011;9041;49.718;21.798;2024-01-25T00:59:53;9.80;;;2.50;;
17832;SDS011;9041;49.718;21.798;2024-01-25T01:02:20;12.67;;;2.40;;
17832;SDS011;9041;49.718;21.798;2024-01-25T01:04:48;15.00;;;2.93;;
17832;SDS011;9041;49.718;21.798;2024-01-25T01:07:15;9.33;;;2.60;;
17832;SDS011;9041;49.718;21.798;2024-01-25T01:09:42;11.13;;;2.47;;
17832;SDS011;9041;49.718;21.798;2024-01-25T01:12:10;10.30;;;2.73;;
17832;SDS011;9041;49.718;21.798;2024-01-25T01:14:37;3.97;;;2.17;;
17832;SDS011;9041;49.718;21.798;2024-01-25T01:17:03;11.73;;;2.10;;
17832;SDS011;9041;49.718;21.798;2024-01-25T01:19:30;7.30;;;2.37;;
17832;SDS011;9041;49.718;21.798;2024-01-25T01:21:57;6.20;;;2.13;;
17832;SDS011;9041;49.718;21.798;2024-01-25T01:24:24;12.53;;;1.77;;
17832;SDS011;9041;49.718;21.798;2024-01-25T01:26:51;7.63;;;2.27;;
17832;SDS011;9041;49.718;21.798;2024-01-25T01:29:19;8.43;;;2.07;;
17832;SDS011;9041;49.718;21.798;2024-01-25T01:31:45;11.23;;;2.27;;
17832;SDS011;9041;49.718;21.798;2024-01-25T01:34:12;6.93;;;2.40;;
17832;SDS011;9041;49.718;21.798;2024-01-25T01:36:39;6.90;;;1.90;;
17832;SDS011;9041;49.718;21.798;2024-01-25T01:39:05;7.30;;;2.37;;
17832;SDS011;9041;49.718;21.798;2024-01-25T01:41:32;12.93;;;2.07;;
17832;SDS011;9041;49.718;21.798;2024-01-25T01:43:59;6.20;;;2.03;;
17832;SDS011;9041;49.718;21.798;2024-01-25T01:46:30;12.17;;;2.10;;
17832;SDS011;9041;49.718;21.798;2024-01-25T01:48:58;6.50;;;1.90;;
17832;SDS011;9041;49.718;21.798;2024-01-25T01:51:25;9.17;;;2.13;;
17832;SDS011;9041;49.718;21.798;2024-01-25T01:53:52;8.63;;;1.90;;
17832;SDS011;9041;49.718;21.798;2024-01-25T01:56:20;7.70;;;2.10;;
17832;SDS011;9041;49.718;21.798;2024-01-25T01:58:46;6.70;;;2.10;;
17832;SDS011;9041;49.718;21.798;2024-01-25T02:01:14;11.13;;;2.40;;
17832;SDS011;9041;49.718;21.798;2024-01-25T02:03:41;8.30;;;1.90;;
17832;SDS011;9041;49.718;21.798;2024-01-25T02:06:08;9.73;;;2.20;;
17832;SDS011;9041;49.718;21.798;2024-01-25T02:08:35;8.90;;;1.83;;
17832;SDS011;9041;49.718;21.798;2024-01-25T02:11:01;8.17;;;1.93;;
17832;SDS011;9041;49.718;21.798;2024-01-25T02:13:28;5.13;;;1.87;;
17832;SDS011;9041;49.718;21.798;2024-01-25T02:15:55;9.13;;;2.17;;
17832;SDS011;9041;49.718;21.798;2024-01-25T02:18:22;6.50;;;2.43;;
17832;SDS011;9041;49.718;21.798;2024-01-25T02:20:50;8.33;;;1.97;;
17832;SDS011;9041;49.718;21.798;2024-01-25T02:23:18;7.40;;;2.27;;
17832;SDS011;9041;49.718;21.798;2024-01-25T02:25:44;7.90;;;2.00;;
17832;SDS011;9041;49.718;21.798;2024-01-25T02:28:11;6.30;;;2.10;;
17832;SDS011;9041;49.718;21.798;2024-01-25T02:30:37;8.10;;;2.50;;
17832;SDS011;9041;49.718;21.798;2024-01-25T02:33:04;3.40;;;1.80;;
17832;SDS011;9041;49.718;21.798;2024-01-25T02:35:31;12.60;;;2.60;;
17832;SDS011;9041;49.718;21.798;2024-01-25T02:37:57;7.33;;;2.13;;
17832;SDS011;9041;49.718;21.798;2024-01-25T02:40:25;8.70;;;2.03;;
17832;SDS011;9041;49.718;21.798;2024-01-25T02:42:52;6.50;;;2.17;;
17832;SDS011;9041;49.718;21.798;2024-01-25T02:45:18;13.53;;;2.17;;
17832;SDS011;9041;49.718;21.798;2024-01-25T02:47:47;8.07;;;1.97;;
17832;SDS011;9041;49.718;21.798;2024-01-25T02:50:13;8.50;;;2.33;;
17832;SDS011;9041;49.718;21.798;2024-01-25T02:52:40;7.13;;;2.00;;
17832;SDS011;9041;49.718;21.798;2024-01-25T02:55:07;6.90;;;2.10;;
17832;SDS011;9041;49.718;21.798;2024-01-25T02:57:35;9.33;;;2.57;;
17832;SDS011;9041;49.718;21.798;2024-01-25T03:00:02;7.23;;;1.80;;
17832;SDS011;9041;49.718;21.798;2024-01-25T03:02:29;6.70;;;1.87;;
17832;SDS011;9041;49.718;21.798;2024-01-25T03:04:56;10.10;;;2.23;;
17832;SDS011;9041;49.718;21.798;2024-01-25T03:07:23;5.43;;;2.00;;
17832;SDS011;9041;49.718;21.798;2024-01-25T03:09:50;7.70;;;1.80;;
17832;SDS011;9041;49.718;21.798;2024-01-25T03:12:16;8.97;;;1.90;;
17832;SDS011;9041;49.718;21.798;2024-01-25T03:14:44;8.60;;;2.00;;
17832;SDS011;9041;49.718;21.798;2024-01-25T03:17:11;6.50;;;2.20;;
17832;SDS011;9041;49.718;21.798;2024-01-25T03:19:37;6.23;;;1.90;;
17832;SDS011;9041;49.718;21.798;2024-01-25T03:22:04;9.17;;;2.33;;
17832;SDS011;9041;49.718;21.798;2024-01-25T03:24:31;5.13;;;2.00;;
17832;SDS011;9041;49.718;21.798;2024-01-25T03:26:57;7.50;;;1.83;;
17832;SDS011;9041;49.718;21.798;2024-01-25T03:29:24;9.43;;;2.10;;
17832;SDS011;9041;49.718;21.798;2024-01-25T03:31:52;10.60;;;2.37;;
17832;SDS011;9041;49.718;21.798;2024-01-25T03:34:18;6.93;;;1.87;;
17832;SDS011;9041;49.718;21.798;2024-01-25T03:36:45;6.20;;;1.93;;
17832;SDS011;9041;49.718;21.798;2024-01-25T03:39:11;4.90;;;1.60;;
17832;SDS011;9041;49.718;21.798;2024-01-25T03:41:38;8.40;;;1.67;;
17832;SDS011;9041;49.718;21.798;2024-01-25T03:44:04;8.60;;;2.90;;
17832;SDS011;9041;49.718;21.798;2024-01-25T03:46:31;7.97;;;2.40;;
17832;SDS011;9041;49.718;21.798;2024-01-25T03:48:58;10.13;;;2.80;;
17832;SDS011;9041;49.718;21.798;2024-01-25T03:51:25;11.50;;;2.30;;
17832;SDS011;9041;49.718;21.798;2024-01-25T03:53:51;4.00;;;1.70;;
17832;SDS011;9041;49.718;21.798;2024-01-25T03:56:20;9.60;;;1.97;;
17832;SDS011;9041;49.718;21.798;2024-01-25T03:58:47;13.00;;;2.60;;
17832;SDS011;9041;49.718;21.798;2024-01-25T04:01:14;7.90;;;2.10;;
17832;SDS011;9041;49.718;21.798;2024-01-25T04:03:41;15.90;;;2.07;;
17832;SDS011;9041;49.718;21.798;2024-01-25T04:06:08;7.77;;;1.70;;
17832;SDS011;9041;49.718;21.798;2024-01-25T04:08:35;12.40;;;2.23;;
17832;SDS011;9041;49.718;21.798;2024-01-25T04:11:02;5.03;;;1.80;;
17832;SDS011;9041;49.718;21.798;2024-01-25T04:13:29;5.57;;;1.87;;
17832;SDS011;9041;49.718;21.798;2024-01-25T04:15:56;8.37;;;2.17;;
17832;SDS011;9041;49.718;21.798;2024-01-25T04:18:22;7.47;;;2.27;;
17832;SDS011;9041;49.718;21.798;2024-01-25T04:20:49;8.00;;;1.83;;
17832;SDS011;9041;49.718;21.798;2024-01-25T04:23:17;8.33;;;2.00;;
17832;SDS011;9041;49.718;21.798;2024-01-25T04:25:44;10.47;;;2.13;;
17832;SDS011;9041;49.718;21.798;2024-01-25T04:28:10;5.20;;;2.27;;
17832;SDS011;9041;49.718;21.798;2024-01-25T04:30:37;7.37;;;1.93;;
17832;SDS011;9041;49.718;21.798;2024-01-25T04:33:04;8.00;;;2.07;;
17832;SDS011;9041;49.718;21.798;2024-01-25T04:35:31;9.63;;;2.43;;
17832;SDS011;9041;49.718;21.798;2024-01-25T04:37:58;7.17;;;2.10;;
17832;SDS011;9041;49.718;21.798;2024-01-25T04:40:26;11.17;;;3.10;;
17832;SDS011;9041;49.718;21.798;2024-01-25T04:42:53;9.70;;;2.10;;
17832;SDS011;9041;49.718;21.798;2024-01-25T04:45:20;13.87;;;2.73;;
17832;SDS011;9041;49.718;21.798;2024-01-25T04:47:46;8.47;;;2.60;;
17832;SDS011;9041;49.718;21.798;2024-01-25T04:50:13;8.37;;;2.00;;
17832;SDS011;9041;49.718;21.798;2024-01-25T04:52:40;6.43;;;2.03;;
17832;SDS011;9041;49.718;21.798;2024-01-25T04:55:07;6.93;;;1.73;;
17832;SDS011;9041;49.718;21.798;2024-01-25T04:57:35;3.87;;;1.40;;
17832;SDS011;9041;49.718;21.798;2024-01-25T05:00:02;3.97;;;1.20;;
17832;SDS011;9041;49.718;21.798;2024-01-25T05:02:29;4.47;;;1.13;;
17832;SDS011;9041;49.718;21.798;2024-01-25T05:04:56;3.33;;;1.13;;
17832;SDS011;9041;49.718;21.798;2024-01-25T05:07:22;5.47;;;1.50;;
17832;SDS011;9041;49.718;21.798;2024-01-25T05:09:49;3.73;;;1.20;;
17832;SDS011;9041;49.718;21.798;2024-01-25T05:12:16;7.40;;;1.40;;
17832;SDS011;9041;49.718;21.798;2024-01-25T05:14:44;2.93;;;1.17;;
17832;SDS011;9041;49.718;21.798;2024-01-25T05:17:10;2.70;;;1.50;;
17832;SDS011;9041;49.718;21.798;2024-01-25T05:19:37;3.67;;;1.60;;
17832;SDS011;9041;49.718;21.798;2024-01-25T05:22:04;4.57;;;1.60;;
17832;SDS011;9041;49.718;21.798;2024-01-25T05:24:31;5.70;;;1.77;;
17832;SDS011;9041;49.718;21.798;2024-01-25T05:26:58;7.40;;;1.70;;
17832;SDS011;9041;49.718;21.798;2024-01-25T05:29:24;8.53;;;1.70;;
17832;SDS011;9041;49.718;21.798;2024-01-25T05:31:52;4.83;;;1.90;;
17832;SDS011;9041;49.718;21.798;2024-01-25T05:34:19;8.47;;;2.00;;
17832;SDS011;9041;49.718;21.798;2024-01-25T05:36:45;5.20;;;1.83;;
17832;SDS011;9041;49.718;21.798;2024-01-25T05:39:12;8.40;;;2.83;;
17832;SDS011;9041;49.718;21.798;2024-01-25T05:41:39;7.47;;;1.87;;
17832;SDS011;9041;49.718;21.798;2024-01-25T05:44:06;8.07;;;2.23;;
17832;SDS011;9041;49.718;21.798;2024-01-25T05:46:33;7.63;;;2.20;;
17832;SDS011;9041;49.718;21.798;2024-01-25T05:49:01;13.83;;;2.70;;
17832;SDS011;9041;49.718;21.798;2024-01-25T05:51:27;8.07;;;2.20;;
17832;SDS011;9041;49.718;21.798;2024-01-25T05:53:54;12.03;;;2.40;;
17832;SDS011;9041;49.718;21.798;2024-01-25T05:56:21;10.10;;;2.23;;
17832;SDS011;9041;49.718;21.798;2024-01-25T05:58:47;6.00;;;2.07;;
17832;SDS011;9041;49.718;21.798;2024-01-25T06:01:14;7.53;;;2.10;;
17832;SDS011;9041;49.718;21.798;2024-01-25T06:03:41;8.33;;;2.13;;
17832;SDS011;9041;49.718;21.798;2024-01-25T06:06:08;7.23;;;2.30;;
17832;SDS011;9041;49.718;21.798;2024-01-25T06:08:35;10.97;;;3.00;;
17832;SDS011;9041;49.718;21.798;2024-01-25T06:11:02;10.90;;;2.20;;
17832;SDS011;9041;49.718;21.798;2024-01-25T06:13:29;9.93;;;2.10;;
17832;SDS011;9041;49.718;21.798;2024-01-25T06:15:57;9.33;;;2.20;;
17832;SDS011;9041;49.718;21.798;2024-01-25T06:18:23;9.57;;;2.67;;
17832;SDS011;9041;49.718;21.798;2024-01-25T06:20:50;9.63;;;2.30;;
17832;SDS011;9041;49.718;21.798;2024-01-25T06:23:18;8.13;;;2.40;;
17832;SDS011;9041;49.718;21.798;2024-01-25T06:25:45;11.43;;;2.33;;
17832;SDS011;9041;49.718;21.798;2024-01-25T06:28:11;7.60;;;2.17;;
17832;SDS011;9041;49.718;21.798;2024-01-25T06:30:38;8.33;;;2.10;;
17832;SDS011;9041;49.718;21.798;2024-01-25T06:33:05;11.80;;;2.10;;
17832;SDS011;9041;49.718;21.798;2024-01-25T06:35:31;14.83;;;2.53;;
17832;SDS011;9041;49.718;21.798;2024-01-25T06:37:59;11.97;;;2.10;;
17832;SDS011;9041;49.718;21.798;2024-01-25T06:40:27;7.13;;;2.40;;
17832;SDS011;9041;49.718;21.798;2024-01-25T06:42:54;17.13;;;2.80;;
17832;SDS011;9041;49.718;21.798;2024-01-25T06:45:20;11.13;;;2.70;;
17832;SDS011;9041;49.718;21.798;2024-01-25T06:47:47;11.23;;;2.30;;
17832;SDS011;9041;49.718;21.798;2024-01-25T06:50:13;7.43;;;2.37;;
17832;SDS011;9041;49.718;21.798;2024-01-25T06:52:40;13.13;;;2.40;;
17832;SDS011;9041;49.718;21.798;2024-01-25T06:55:08;13.70;;;2.70;;
17832;SDS011;9041;49.718;21.798;2024-01-25T06:57:37;12.57;;;2.57;;
17832;SDS011;9041;49.718;21.798;2024-01-25T07:00:04;9.90;;;2.70;;
17832;SDS011;9041;49.718;21.798;2024-01-25T07:02:33;11.27;;;2.67;;
17832;SDS011;9041;49.718;21.798;2024-01-25T07:04:59;8.20;;;2.50;;
17832;SDS011;9041;49.718;21.798;2024-01-25T07:07:26;8.53;;;2.00;;
17832;SDS011;9041;49.718;21.798;2024-01-25T07:09:53;15.00;;;2.80;;
17832;SDS011;9041;49.718;21.798;2024-01-25T07:12:19;14.03;;;2.73;;
17832;SDS011;9041;49.718;21.798;2024-01-25T07:14:47;13.93;;;2.40;;
17832;SDS011;9041;49.718;21.798;2024-01-25T07:17:14;9.10;;;2.40;;
17832;SDS011;9041;49.718;21.798;2024-01-25T07:19:40;12.37;;;3.33;;
17832;SDS011;9041;49.718;21.798;2024-01-25T07:22:07;15.17;;;2.93;;
17832;SDS011;9041;49.718;21.798;2024-01-25T07:24:33;10.03;;;2.67;;
17832;SDS011;9041;49.718;21.798;2024-01-25T07:27:00;7.97;;;2.73;;
17832;SDS011;9041;49.718;21.798;2024-01-25T07:29:27;11.53;;;2.70;;
17832;SDS011;9041;49.718;21.798;2024-01-25T07:31:57;11.60;;;2.70;;
17832;SDS011;9041;49.718;21.798;2024-01-25T07:34:24;11.50;;;2.80;;
17832;SDS011;9041;49.718;21.798;2024-01-25T07:36:51;14.30;;;2.90;;
17832;SDS011;9041;49.718;21.798;2024-01-25T07:39:17;12.90;;;2.97;;
17832;SDS011;9041;49.718;21.798;2024-01-25T07:41:44;12.40;;;2.90;;
17832;SDS011;9041;49.718;21.798;2024-01-25T07:44:10;9.93;;;2.73;;
17832;SDS011;9041;49.718;21.798;2024-01-25T07:46:37;7.87;;;2.40;;
17832;SDS011;9041;49.718;21.798;2024-01-25T07:49:05;11.47;;;2.73;;
17832;SDS011;9041;49.718;21.798;2024-01-25T07:51:32;13.50;;;3.37;;
17832;SDS011;9041;49.718;21.798;2024-01-25T07:53:59;12.20;;;2.90;;
17832;SDS011;9041;49.718;21.798;2024-01-25T07:56:25;9.87;;;2.60;;
17832;SDS011;9041;49.718;21.798;2024-01-25T07:58:52;10.40;;;2.73;;
17832;SDS011;9041;49.718;21.798;2024-01-25T08:01:18;9.40;;;3.00;;
17832;SDS011;9041;49.718;21.798;2024-01-25T08:03:46;10.97;;;2.93;;
17832;SDS011;9041;49.718;21.798;2024-01-25T08:06:14;6.53;;;2.40;;
17832;SDS011;9041;49.718;21.798;2024-01-25T08:08:40;12.17;;;3.17;;
17832;SDS011;9041;49.718;21.798;2024-01-25T08:11:07;5.80;;;2.40;;
17832;SDS011;9041;49.718;21.798;2024-01-25T08:13:34;10.83;;;2.57;;
17832;SDS011;9041;49.718;21.798;2024-01-25T08:16:01;8.63;;;2.23;;
17832;SDS011;9041;49.718;21.798;2024-01-25T08:18:27;6.13;;;2.23;;
17832;SDS011;9041;49.718;21.798;2024-01-25T08:20:55;10.93;;;2.40;;
17832;SDS011;9041;49.718;21.798;2024-01-25T08:23:23;10.97;;;2.50;;
17832;SDS011;9041;49.718;21.798;2024-01-25T08:25:50;9.33;;;2.40;;
17832;SDS011;9041;49.718;21.798;2024-01-25T08:28:16;10.03;;;2.80;;
17832;SDS011;9041;49.718;21.798;2024-01-25T08:30:43;7.10;;;2.23;;
17832;SDS011;9041;49.718;21.798;2024-01-25T08:33:10;11.47;;;2.57;;
17832;SDS011;9041;49.718;21.798;2024-01-25T08:35:36;11.80;;;3.17;;
17832;SDS011;9041;49.718;21.798;2024-01-25T08:38:04;12.50;;;3.00;;
17832;SDS011;9041;49.718;21.798;2024-01-25T08:40:32;8.97;;;2.80;;
17832;SDS011;9041;49.718;21.798;2024-01-25T08:42:59;13.13;;;3.30;;
17832;SDS011;9041;49.718;21.798;2024-01-25T08:45:25;11.40;;;3.30;;
17832;SDS011;9041;49.718;21.798;2024-01-25T08:47:52;9.10;;;2.80;;
17832;SDS011;9041;49.718;21.798;2024-01-25T08:50:20;12.17;;;3.23;;
17832;SDS011;9041;49.718;21.798;2024-01-25T08:52:47;8.40;;;3.17;;
17832;SDS011;9041;49.718;21.798;2024-01-25T08:55:14;10.27;;;3.37;;
17832;SDS011;9041;49.718;21.798;2024-01-25T08:57:42;8.60;;;3.30;;
17832;SDS011;9041;49.718;21.798;2024-01-25T09:00:09;12.60;;;4.17;;
17832;SDS011;9041;49.718;21.798;2024-01-25T09:02:36;10.63;;;3.00;;
17832;SDS011;9041;49.718;21.798;2024-01-25T09:05:03;12.87;;;4.10;;
17832;SDS011;9041;49.718;21.798;2024-01-25T09:07:31;7.40;;;3.03;;
17832;SDS011;9041;49.718;21.798;2024-01-25T09:09:57;12.20;;;3.50;;
17832;SDS011;9041;49.718;21.798;2024-01-25T09:12:24;11.63;;;3.90;;
17832;SDS011;9041;49.718;21.798;2024-01-25T09:14:52;19.33;;;4.70;;
17832;SDS011;9041;49.718;21.798;2024-01-25T09:17:18;13.70;;;4.00;;
17832;SDS011;9041;49.718;21.798;2024-01-25T09:19:47;14.10;;;3.80;;
17832;SDS011;9041;49.718;21.798;2024-01-25T09:22:14;8.00;;;3.20;;
17832;SDS011;9041;49.718;21.798;2024-01-25T09:24:42;17.23;;;3.83;;
17832;SDS011;9041;49.718;21.798;2024-01-25T09:27:08;9.13;;;2.90;;
17832;SDS011;9041;49.718;21.798;2024-01-25T09:29:35;7.60;;;3.10;;
17832;SDS011;9041;49.718;21.798;2024-01-25T09:32:05;7.30;;;2.70;;
17832;SDS011;9041;49.718;21.798;2024-01-25T09:34:32;13.53;;;2.97;;
17832;SDS011;9041;49.718;21.798;2024-01-25T09:36:58;13.00;;;2.83;;
17832;SDS011;9041;49.718;21.798;2024-01-25T09:39:25;9.67;;;3.83;;
17832;SDS011;9041;49.718;21.798;2024-01-25T09:41:52;7.90;;;3.03;;
17832;SDS011;9041;49.718;21.798;2024-01-25T09:44:19;5.70;;;2.60;;
17832;SDS011;9041;49.718;21.798;2024-01-25T09:46:46;8.83;;;3.17;;
17832;SDS011;9041;49.718;21.798;2024-01-25T09:49:15;8.20;;;2.50;;
17832;SDS011;9041;49.718;21.798;2024-01-25T09:51:42;12.37;;;2.80;;
17832;SDS011;9041;49.718;21.798;2024-01-25T09:54:09;10.57;;;3.40;;
17832;SDS011;9041;49.718;21.798;2024-01-25T09:56:36;12.37;;;2.80;;
17832;SDS011;9041;49.718;21.798;2024-01-25T09:59:02;8.73;;;3.00;;
17832;SDS011;9041;49.718;21.798;2024-01-25T10:01:29;9.40;;;2.87;;
17832;SDS011;9041;49.718;21.798;2024-01-25T10:03:56;7.77;;;2.80;;
17832;SDS011;9041;49.718;21.798;2024-01-25T10:06:24;12.13;;;3.13;;
17832;SDS011;9041;49.718;21.798;2024-01-25T10:08:51;11.10;;;3.20;;
17832;SDS011;9041;49.718;21.798;2024-01-25T10:11:18;6.90;;;2.83;;
17832;SDS011;9041;49.718;21.798;2024-01-25T10:13:46;7.33;;;2.50;;
17832;SDS011;9041;49.718;21.798;2024-01-25T10:16:16;5.93;;;2.70;;
17832;SDS011;9041;49.718;21.798;2024-01-25T10:18:44;11.37;;;2.83;;
17832;SDS011;9041;49.718;21.798;2024-01-25T10:21:12;9.27;;;2.60;;
17832;SDS011;9041;49.718;21.798;2024-01-25T10:23:40;9.93;;;2.87;;
17832;SDS011;9041;49.718;21.798;2024-01-25T10:26:07;11.03;;;2.50;;
17832;SDS011;9041;49.718;21.798;2024-01-25T10:28:36;5.17;;;2.43;;
17832;SDS011;9041;49.718;21.798;2024-01-25T10:31:03;9.60;;;2.90;;
17832;SDS011;9041;49.718;21.798;2024-01-25T10:33:31;6.83;;;2.80;;
17832;SDS011;9041;49.718;21.798;2024-01-25T10:35:58;6.60;;;2.37;;
17832;SDS011;9041;49.718;21.798;2024-01-25T10:38:27;12.60;;;3.30;;
17832;SDS011;9041;49.718;21.798;2024-01-25T10:40:57;7.57;;;2.50;;
17832;SDS011;9041;49.718;21.798;2024-01-25T10:43:25;7.33;;;3.20;;
17832;SDS011;9041;49.718;21.798;2024-01-25T10:45:51;7.00;;;3.30;;
17832;SDS011;9041;49.718;21.798;2024-01-25T10:48:23;7.43;;;3.07;;
17832;SDS011;9041;49.718;21.798;2024-01-25T10:50:50;13.97;;;3.57;;
17832;SDS011;9041;49.718;21.798;2024-01-25T10:53:19;12.10;;;3.50;;
17832;SDS011;9041;49.718;21.798;2024-01-25T10:55:46;8.93;;;3.50;;
17832;SDS011;9041;49.718;21.798;2024-01-25T10:58:15;5.63;;;2.80;;
17832;SDS011;9041;49.718;21.798;2024-01-25T11:00:42;9.47;;;3.67;;
17832;SDS011;9041;49.718;21.798;2024-01-25T11:03:20;6.83;;;3.23;;
17832;SDS011;9041;49.718;21.798;2024-01-25T11:06:04;10.17;;;3.47;;
17832;SDS011;9041;49.718;21.798;2024-01-25T11:08:32;10.90;;;3.10;;
17832;SDS011;9041;49.718;21.798;2024-01-25T11:10:58;8.77;;;3.13;;
17832;SDS011;9041;49.718;21.798;2024-01-25T11:13:27;8.13;;;3.03;;
17832;SDS011;9041;49.718;21.798;2024-01-25T11:15:54;8.77;;;2.90;;
17832;SDS011;9041;49.718;21.798;2024-01-25T11:18:24;10.03;;;3.00;;
17832;SDS011;9041;49.718;21.798;2024-01-25T11:20:51;6.43;;;2.80;;
17832;SDS011;9041;49.718;21.798;2024-01-25T11:23:17;11.23;;;3.53;;
17832;SDS011;9041;49.718;21.798;2024-01-25T11:25:45;7.60;;;3.30;;
17832;SDS011;9041;49.718;21.798;2024-01-25T11:28:13;11.00;;;3.67;;
17832;SDS011;9041;49.718;21.798;2024-01-25T11:30:42;11.00;;;4.80;;
17832;SDS011;9041;49.718;21.798;2024-01-25T11:33:09;13.07;;;3.73;;
17832;SDS011;9041;49.718;21.798;2024-01-25T11:35:37;10.63;;;3.73;;
17832;SDS011;9041;49.718;21.798;2024-01-25T11:38:03;9.50;;;4.20;;
17832;SDS011;9041;49.718;21.798;2024-01-25T11:40:30;12.30;;;4.30;;
17832;SDS011;9041;49.718;21.798;2024-01-25T11:43:00;8.93;;;4.00;;
17832;SDS011;9041;49.718;21.798;2024-01-25T11:45:27;13.23;;;5.10;;
17832;SDS011;9041;49.718;21.798;2024-01-25T11:47:55;16.33;;;4.63;;
17832;SDS011;9041;49.718;21.798;2024-01-25T11:50:21;14.23;;;4.83;;
17832;SDS011;9041;49.718;21.798;2024-01-25T11:52:49;12.47;;;4.87;;
17832;SDS011;9041;49.718;21.798;2024-01-25T11:55:18;17.73;;;4.93;;
17832;SDS011;9041;49.718;21.798;2024-01-25T11:57:45;9.10;;;4.30;;
17832;SDS011;9041;49.718;21.798;2024-01-25T12:00:13;18.60;;;4.80;;
17832;SDS011;9041;49.718;21.798;2024-01-25T12:02:40;14.33;;;4.77;;
17832;SDS011;9041;49.718;21.798;2024-01-25T12:05:09;15.33;;;4.40;;
17832;SDS011;9041;49.718;21.798;2024-01-25T12:07:38;11.60;;;5.43;;
17832;SDS011;9041;49.718;21.798;2024-01-25T12:10:05;12.93;;;4.87;;
17832;SDS011;9041;49.718;21.798;2024-01-25T12:12:34;10.73;;;4.50;;
17832;SDS011;9041;49.718;21.798;2024-01-25T12:15:03;10.77;;;4.50;;
17832;SDS011;9041;49.718;21.798;2024-01-25T12:17:31;15.80;;;5.00;;
17832;SDS011;9041;49.718;21.798;2024-01-25T12:19:59;21.40;;;6.40;;
17832;SDS011;9041;49.718;21.798;2024-01-25T12:22:27;13.33;;;4.23;;
17832;SDS011;9041;49.718;21.798;2024-01-25T12:24:55;17.67;;;4.50;;
17832;SDS011;9041;49.718;21.798;2024-01-25T12:27:24;17.87;;;5.50;;
17832;SDS011;9041;49.718;21.798;2024-01-25T12:29:51;15.53;;;5.33;;
17832;SDS011;9041;49.718;21.798;2024-01-25T12:32:19;16.43;;;5.23;;
17832;SDS011;9041;49.718;21.798;2024-01-25T12:34:52;11.73;;;5.13;;
17832;SDS011;9041;49.718;21.798;2024-01-25T12:37:19;18.53;;;6.87;;
17832;SDS011;9041;49.718;21.798;2024-01-25T12:39:49;10.97;;;5.20;;
17832;SDS011;9041;49.718;21.798;2024-01-25T12:42:17;14.80;;;5.63;;
17832;SDS011;9041;49.718;21.798;2024-01-25T12:44:43;16.23;;;6.23;;
17832;SDS011;9041;49.718;21.798;2024-01-25T12:47:11;15.80;;;5.60;;
17832;SDS011;9041;49.718;21.798;2024-01-25T12:49:39;18.60;;;4.57;;
17832;SDS011;9041;49.718;21.798;2024-01-25T12:52:06;22.33;;;4.80;;
17832;SDS011;9041;49.718;21.798;2024-01-25T12:54:34;15.20;;;4.57;;
17832;SDS011;9041;49.718;21.798;2024-01-25T12:57:02;17.87;;;4.80;;
17832;SDS011;9041;49.718;21.798;2024-01-25T12:59:28;21.27;;;7.67;;
17832;SDS011;9041;49.718;21.798;2024-01-25T13:01:56;17.67;;;6.03;;
17832;SDS011;9041;49.718;21.798;2024-01-25T13:04:23;19.87;;;5.83;;
17832;SDS011;9041;49.718;21.798;2024-01-25T13:06:51;22.60;;;5.43;;
17832;SDS011;9041;49.718;21.798;2024-01-25T13:09:18;17.40;;;4.93;;
17832;SDS011;9041;49.718;21.798;2024-01-25T13:11:48;12.80;;;4.13;;
17832;SDS011;9041;49.718;21.798;2024-01-25T13:14:17;18.33;;;4.67;;
17832;SDS011;9041;49.718;21.798;2024-01-25T13:16:44;10.63;;;5.00;;
17832;SDS011;9041;49.718;21.798;2024-01-25T13:19:11;20.97;;;6.47;;
17832;SDS011;9041;49.718;21.798;2024-01-25T13:21:37;17.70;;;5.73;;
17832;SDS011;9041;49.718;21.798;2024-01-25T13:24:04;22.97;;;7.57;;
17832;SDS011;9041;49.718;21.798;2024-01-25T13:26:31;17.33;;;6.23;;
17832;SDS011;9041;49.718;21.798;2024-01-25T13:28:58;23.97;;;8.10;;
17832;SDS011;9041;49.718;21.798;2024-01-25T13:31:26;23.43;;;8.37;;
17832;SDS011;9041;49.718;21.798;2024-01-25T13:33:55;21.93;;;7.83;;
17832;SDS011;9041;49.718;21.798;2024-01-25T13:36:22;22.33;;;6.30;;
17832;SDS011;9041;49.718;21.798;2024-01-25T13:38:51;17.10;;;5.53;;
17832;SDS011;9041;49.718;21.798;2024-01-25T13:41:18;20.47;;;6.17;;
17832;SDS011;9041;49.718;21.798;2024-01-25T13:43:45;21.33;;;5.93;;
17832;SDS011;9041;49.718;21.798;2024-01-25T13:46:11;19.83;;;6.13;;
17832;SDS011;9041;49.718;21.798;2024-01-25T13:48:42;26.87;;;9.60;;
17832;SDS011;9041;49.718;21.798;2024-01-25T13:51:09;20.93;;;7.07;;
17832;SDS011;9041;49.718;21.798;2024-01-25T13:53:35;17.37;;;7.53;;
17832;SDS011;9041;49.718;21.798;2024-01-25T13:56:02;23.20;;;7.23;;
17832;SDS011;9041;49.718;21.798;2024-01-25T13:58:29;16.33;;;5.73;;
17832;SDS011;9041;49.718;21.798;2024-01-25T14:00:55;13.90;;;7.20;;
17832;SDS011;9041;49.718;21.798;2024-01-25T14:03:25;16.90;;;6.10;;
17832;SDS011;9041;49.718;21.798;2024-01-25T14:05:53;12.70;;;6.20;;
17832;SDS011;9041;49.718;21.798;2024-01-25T14:08:21;18.30;;;7.33;;
17832;SDS011;9041;49.718;21.798;2024-01-25T14:10:50;16.73;;;6.50;;
17832;SDS011;9041;49.718;21.798;2024-01-25T14:13:17;20.83;;;7.43;;
17832;SDS011;9041;49.718;21.798;2024-01-25T14:15:44;19.27;;;6.80;;
17832;SDS011;9041;49.718;21.798;2024-01-25T14:18:11;28.83;;;8.10;;
17832;SDS011;9041;49.718;21.798;2024-01-25T14:20:37;26.83;;;9.47;;
17832;SDS011;9041;49.718;21.798;2024-01-25T14:23:06;21.00;;;7.73;;
17832;SDS011;9041;49.718;21.798;2024-01-25T14:25:33;26.53;;;8.73;;
17832;SDS011;9041;49.718;21.798;2024-01-25T14:28:02;19.93;;;6.53;;
17832;SDS011;9041;49.718;21.798;2024-01-25T14:30:31;21.77;;;5.93;;
17832;SDS011;9041;49.718;21.798;2024-01-25T14:32:57;13.60;;;5.57;;
17832;SDS011;9041;49.718;21.798;2024-01-25T14:35:24;16.37;;;5.47;;
17832;SDS011;9041;49.718;21.798;2024-01-25T14:37:54;14.03;;;4.73;;
17832;SDS011;9041;49.718;21.798;2024-01-25T14:40:24;20.07;;;5.47;;